Henryke Vii — DJ5796 — position and weather

sailwx.info

Track history (hours):
 
Tides and Currents Weather Stations Pressure Air Temp Water Temp Dewpoint Dewpoint Depression Visibility Wind Speed Wind Dir Waves Ship Positions

Henryke Vii

Last reported at 2014-Oct-28 01:21 UTC. Time now 2014-Nov-21 20:32 UTC.
Position N 40°21' E 001°32'.
Warning: this ship's position is 24 days out of date.

Length 17 m.

Type: Sailing vessel. MMSI: 211380510.

Date/timePositionNaut miles runAvg speedWind from/ knotsBaromVisibWave heightAir tempDewpointWater temp
2014-Oct-28 01:21N 40°21' E 001°32'4 5.0
2014-Oct-28 00:29N 40°18' E 001°35'5 5.5
2014-Oct-27 23:31N 40°13' E 001°40'6 6.4
2014-Oct-27 22:33N 40°08' E 001°45'6 5.6
2014-Oct-27 21:33N 40°04' E 001°49'7 6.5
2014-Oct-27 20:31N 39°59' E 001°54'7 7.4
2014-Oct-27 19:33N 39°53' E 001°60'8 7.5
2014-Oct-27 18:33N 39°47' E 002°05'11 8.6
2014-Oct-27 17:14N 39°38' E 002°14'10 0.4
2014-Oct-26 13:24N 39°31' E 002°23'6 6.3
2014-Oct-26 12:24N 39°27' E 002°30'7 7.8
2014-Oct-26 11:33N 39°24' E 002°38'10 7.4
2014-Oct-26 10:13N 39°21' E 002°50'5 7.5
2014-Oct-26 09:33N 39°21' E 002°57'1 0.3
2014-Oct-26 07:07N 39°22' E 002°57'0 0.0
2014-Oct-26 05:19N 39°22' E 002°57'  
Track history (hours):
 
Tides and Currents Weather Stations Pressure Air Temp Water Temp Dewpoint Dewpoint Depression Visibility Wind Speed Wind Dir Waves Ship Positions

Henryke Vii

Last reported at 2014-Oct-28 01:21 UTC. Time now 2014-Nov-21 20:32 UTC.
Position N 40°21' E 001°32'.
Warning: this ship's position is 24 days out of date.

Length 17 m.

Type: Sailing vessel. MMSI: 211380510.

Date/timePositionNaut miles runAvg speedWind from/ knotsBaromVisibWave heightAir tempDewpointWater temp
2014-Oct-28 01:21N 40°21' E 001°32'4 5.0
2014-Oct-28 00:29N 40°18' E 001°35'5 5.5
2014-Oct-27 23:31N 40°13' E 001°40'6 6.4
2014-Oct-27 22:33N 40°08' E 001°45'6 5.6
2014-Oct-27 21:33N 40°04' E 001°49'7 6.5
2014-Oct-27 20:31N 39°59' E 001°54'7 7.4
2014-Oct-27 19:33N 39°53' E 001°60'8 7.5
2014-Oct-27 18:33N 39°47' E 002°05'11 8.6
2014-Oct-27 17:14N 39°38' E 002°14'10 0.4
2014-Oct-26 13:24N 39°31' E 002°23'6 6.3
2014-Oct-26 12:24N 39°27' E 002°30'7 7.8
2014-Oct-26 11:33N 39°24' E 002°38'10 7.4
2014-Oct-26 10:13N 39°21' E 002°50'5 7.5
2014-Oct-26 09:33N 39°21' E 002°57'1 0.3
2014-Oct-26 07:07N 39°22' E 002°57'0 0.0
2014-Oct-26 05:19N 39°22' E 002°57'  

Dump ship's entire track history